Time;durP1;ratioP1;P1;durP2;ratioP2;P2;SDS_P1;SDS_P2;PMS_P1;PMS_P2;Temp;Humidity;BMP_temperature;BMP_pressure;BME280_temperature;BME280_humidity;BME280_pressure;Samples;Min_cycle;Max_cycle;Signal;HPM_P1;HPM_P2
2020/12/21 00:01:05;;;;;;;;;;;8.90;99.90;;;;;;5047200;28;19931;-69
2020/12/21 00:03:31;;;;;;;;;;;8.90;99.90;;;;;;5050739;28;20355;-70
2020/12/21 00:05:57;;;;;;;;;;;8.90;99.90;;;;;;5055799;28;19925;-69
2020/12/21 00:08:23;;;;;;;;;;;9.00;99.90;;;;;;5045367;28;19925;-70
2020/12/21 00:10:50;;;;;;;;;;;9.00;99.90;;;;;;5055209;28;19929;-70
2020/12/21 00:13:18;;;;;;;;;;;8.90;99.90;;;;;;5056060;28;19936;-70
2020/12/21 00:15:44;;;;;;;;;;;8.90;99.90;;;;;;5049451;28;19951;-70
2020/12/21 00:18:10;;;;;;;;;;;8.90;99.90;;;;;;5054629;28;20013;-70
2020/12/21 00:20:36;;;;;;;;;;;8.80;99.90;;;;;;5049740;28;19933;-70
2020/12/21 00:23:03;;;;;;;;;;;8.80;99.90;;;;;;5045490;28;20401;-70
2020/12/21 00:25:29;;;;;;;;;;;8.80;99.90;;;;;;5053670;28;19947;-70
2020/12/21 00:27:55;;;;;;;;;;;8.80;99.90;;;;;;5043949;28;19925;-70
2020/12/21 00:30:22;;;;;;;;;;;8.80;99.90;;;;;;5053815;28;19929;-69
2020/12/21 00:32:48;;;;;;;;;;;8.80;99.90;;;;;;5052484;28;20000;-70
2020/12/21 00:35:15;;;;;;;;;;;8.80;99.90;;;;;;5051514;28;19935;-70
2020/12/21 00:37:41;;;;;;;;;;;8.70;99.90;;;;;;5042341;28;20269;-69
2020/12/21 00:40:07;;;;;;;;;;;8.70;99.90;;;;;;5055301;28;20011;-70
2020/12/21 00:42:33;;;;;;;;;;;8.70;99.90;;;;;;5041961;28;19931;-69
2020/12/21 00:44:59;;;;;;;;;;;8.70;99.90;;;;;;5054165;28;20020;-70
2020/12/21 00:47:26;;;;;;;;;;;8.80;99.90;;;;;;5052360;28;19925;-69
2020/12/21 00:49:53;;;;;;;;;;;8.70;99.90;;;;;;5044974;28;19924;-69
2020/12/21 00:52:19;;;;;;;;;;;8.70;99.90;;;;;;5054557;28;19977;-70
2020/12/21 00:54:45;;;;;;;;;;;8.70;99.90;;;;;;5046201;28;20283;-69
2020/12/21 00:57:11;;;;;;;;;;;8.70;99.90;;;;;;5054049;28;19925;-69
2020/12/21 00:59:37;;;;;;;;;;;8.70;99.90;;;;;;5055255;28;19939;-69
2020/12/21 01:02:05;;;;;;;;;;;8.70;99.90;;;;;;5041232;28;19925;-69
2020/12/21 01:04:32;;;;;;;;;;;8.70;99.90;;;;;;5054904;28;19925;-70
2020/12/21 01:06:59;;;;;;;;;;;8.70;99.90;;;;;;5050793;28;19936;-69
2020/12/21 01:09:25;;;;;;;;;;;8.70;99.90;;;;;;5048085;28;19932;-69
2020/12/21 01:11:52;;;;;;;;;;;8.70;99.90;;;;;;5054142;28;19935;-69
2020/12/21 01:14:18;;;;;;;;;;;8.70;99.90;;;;;;5051518;28;19935;-69
2020/12/21 01:16:45;;;;;;;;;;;8.70;99.90;;;;;;5052068;28;19925;-69
2020/12/21 01:19:11;;;;;;;;;;;8.70;99.90;;;;;;5047878;28;19925;-69
2020/12/21 01:21:38;;;;;;;;;;;8.70;99.90;;;;;;5042059;28;19924;-69
2020/12/21 01:24:04;;;;;;;;;;;8.70;99.90;;;;;;5048587;28;20371;-70
2020/12/21 01:26:31;;;;;;;;;;;8.70;99.90;;;;;;5043916;28;19929;-70
2020/12/21 01:29:00;;;;;;;;;;;8.70;99.90;;;;;;5051825;28;19940;-69
2020/12/21 01:31:26;;;;;;;;;;;8.70;99.90;;;;;;5049001;28;19932;-69
2020/12/21 01:33:52;;;;;;;;;;;8.80;99.90;;;;;;5050414;28;20019;-69
2020/12/21 01:36:20;;;;;;;;;;;8.70;99.90;;;;;;5049387;28;20354;-69
2020/12/21 01:38:49;;;;;;;;;;;8.70;99.90;;;;;;5046514;28;20016;-69
2020/12/21 01:41:15;;;;;;;;;;;8.70;99.90;;;;;;5048405;28;19935;-69
2020/12/21 01:43:42;;;;;;;;;;;8.80;99.90;;;;;;5047117;28;19924;-69
2020/12/21 01:46:09;;;;;;;;;;;8.80;99.90;;;;;;5048112;28;19951;-70
2020/12/21 01:48:36;;;;;;;;;;;8.80;99.90;;;;;;5042666;28;19925;-69
2020/12/21 01:51:05;;;;;;;;;;;8.80;99.90;;;;;;5052231;28;19935;-69
2020/12/21 01:53:32;;;;;;;;;;;8.80;99.90;;;;;;5054181;28;20012;-70
2020/12/21 01:55:59;;;;;;;;;;;8.80;99.90;;;;;;5045373;28;19925;-70
2020/12/21 01:58:25;;;;;;;;;;;8.80;99.90;;;;;;5053101;28;20007;-70
2020/12/21 02:00:52;;;;;;;;;;;8.80;99.90;;;;;;5047417;28;20000;-71
2020/12/21 02:03:18;;;;;;;;;;;8.80;99.90;;;;;;5045894;28;19928;-71
2020/12/21 02:05:45;;;;;;;;;;;8.80;99.90;;;;;;5051729;28;19959;-69
2020/12/21 02:08:11;;;;;;;;;;;8.80;99.90;;;;;;5053201;28;20271;-70
2020/12/21 02:10:37;;;;;;;;;;;8.80;99.90;;;;;;5053579;28;19935;-70
2020/12/21 02:13:04;;;;;;;;;;;8.80;99.90;;;;;;5053211;28;19935;-70
2020/12/21 02:15:30;;;;;;;;;;;8.80;99.90;;;;;;5052689;28;19925;-70
2020/12/21 02:17:57;;;;;;;;;;;8.80;99.90;;;;;;5051812;28;19935;-70
2020/12/21 02:20:31;;;;;;;;;;;8.80;99.90;;;;;;5049466;28;20015;-70
2020/12/21 02:22:58;;;;;;;;;;;8.80;99.90;;;;;;5043996;28;20351;-70
2020/12/21 02:25:24;;;;;;;;;;;8.80;99.90;;;;;;5044999;28;20417;-70
2020/12/21 02:27:50;;;;;;;;;;;8.80;99.90;;;;;;5049753;28;19928;-70
2020/12/21 02:30:16;;;;;;;;;;;8.80;99.90;;;;;;5051662;28;19924;-70
2020/12/21 02:32:43;;;;;;;;;;;8.80;99.90;;;;;;5042052;28;19925;-70
2020/12/21 02:35:09;;;;;;;;;;;8.90;99.90;;;;;;5047165;28;19925;-70
2020/12/21 02:37:36;;;;;;;;;;;8.90;99.90;;;;;;5048659;28;19986;-70
2020/12/21 02:40:03;;;;;;;;;;;8.90;99.90;;;;;;5049830;28;19925;-70
2020/12/21 02:42:29;;;;;;;;;;;8.90;99.90;;;;;;5049437;28;19998;-70
2020/12/21 02:44:55;;;;;;;;;;;8.90;99.90;;;;;;5043405;28;19935;-70
2020/12/21 02:47:21;;;;;;;;;;;8.90;99.90;;;;;;5049193;28;19968;-70
2020/12/21 02:49:48;;;;;;;;;;;8.90;99.90;;;;;;5043569;28;20381;-70
2020/12/21 02:52:15;;;;;;;;;;;8.90;99.90;;;;;;5049033;28;20395;-70
2020/12/21 02:54:42;;;;;;;;;;;8.90;99.90;;;;;;5046891;28;20305;-70
2020/12/21 02:57:08;;;;;;;;;;;9.00;99.90;;;;;;5049883;28;20301;-70
2020/12/21 02:59:34;;;;;;;;;;;9.00;99.90;;;;;;5042152;28;20299;-70
2020/12/21 03:02:00;;;;;;;;;;;9.00;99.90;;;;;;5046846;28;19929;-71
2020/12/21 03:04:26;;;;;;;;;;;9.00;99.90;;;;;;5052956;28;20026;-71
2020/12/21 03:06:53;;;;;;;;;;;9.10;99.90;;;;;;5039435;28;20290;-71
2020/12/21 03:09:19;;;;;;;;;;;9.10;99.90;;;;;;5041279;28;20388;-71
2020/12/21 03:11:46;;;;;;;;;;;9.10;99.90;;;;;;5050585;28;19924;-70
2020/12/21 03:14:12;;;;;;;;;;;9.10;99.90;;;;;;5048912;28;19937;-71
2020/12/21 03:16:38;;;;;;;;;;;9.10;99.90;;;;;;5050619;28;20002;-71
2020/12/21 03:19:05;;;;;;;;;;;9.10;99.90;;;;;;5052227;28;20016;-71
2020/12/21 03:21:31;;;;;;;;;;;9.10;99.90;;;;;;5044866;28;19924;-71
2020/12/21 03:23:58;;;;;;;;;;;9.10;99.90;;;;;;5049318;28;20393;-70
2020/12/21 03:26:24;;;;;;;;;;;9.10;99.90;;;;;;5042707;28;20401;-71
2020/12/21 03:28:51;;;;;;;;;;;9.10;99.90;;;;;;5048740;28;19925;-71
2020/12/21 03:31:17;;;;;;;;;;;9.10;99.90;;;;;;5046638;28;20033;-70
2020/12/21 03:33:43;;;;;;;;;;;9.20;99.90;;;;;;5039314;28;19928;-71
2020/12/21 03:36:10;;;;;;;;;;;9.20;99.90;;;;;;5051780;28;19925;-71
2020/12/21 03:38:36;;;;;;;;;;;9.20;99.90;;;;;;5041595;28;19925;-71
2020/12/21 03:41:05;;;;;;;;;;;9.20;99.90;;;;;;5042307;28;20003;-71
2020/12/21 03:43:31;;;;;;;;;;;9.20;99.90;;;;;;5048688;28;19931;-71
2020/12/21 03:45:58;;;;;;;;;;;9.20;99.90;;;;;;5052295;28;19935;-70
2020/12/21 03:48:25;;;;;;;;;;;9.20;99.90;;;;;;5051187;28;20238;-70
2020/12/21 03:50:51;;;;;;;;;;;9.20;99.90;;;;;;5039040;28;20407;-70
2020/12/21 03:53:17;;;;;;;;;;;9.20;99.90;;;;;;5040679;28;19925;-71
2020/12/21 03:55:43;;;;;;;;;;;9.20;99.90;;;;;;5050469;28;19935;-71
2020/12/21 03:58:10;;;;;;;;;;;9.20;99.90;;;;;;5051852;28;20278;-71
2020/12/21 04:00:36;;;;;;;;;;;9.10;99.90;;;;;;5038964;28;19925;-71
2020/12/21 04:03:03;;;;;;;;;;;9.10;99.90;;;;;;5047847;28;19924;-71
2020/12/21 04:05:29;;;;;;;;;;;9.20;99.90;;;;;;5046620;28;19925;-71
2020/12/21 04:07:56;;;;;;;;;;;9.20;99.90;;;;;;5044302;28;19939;-71
2020/12/21 04:10:22;;;;;;;;;;;9.20;99.90;;;;;;5038466;28;19925;-71
2020/12/21 04:12:48;;;;;;;;;;;9.20;99.90;;;;;;5049226;28;20122;-71
2020/12/21 04:15:14;;;;;;;;;;;9.20;99.90;;;;;;5044726;28;20395;-71
2020/12/21 04:17:41;;;;;;;;;;;9.30;99.90;;;;;;5052052;28;19929;-71
2020/12/21 04:20:08;;;;;;;;;;;9.30;99.90;;;;;;5042028;28;19982;-71
2020/12/21 04:22:34;;;;;;;;;;;9.30;99.90;;;;;;5040582;28;19994;-71
2020/12/21 04:25:00;;;;;;;;;;;9.20;99.90;;;;;;5050962;28;20362;-71
2020/12/21 04:27:26;;;;;;;;;;;9.20;99.90;;;;;;5038547;28;19925;-71
2020/12/21 04:29:53;;;;;;;;;;;9.20;99.90;;;;;;5054922;28;19924;-71
2020/12/21 04:32:19;;;;;;;;;;;9.20;99.90;;;;;;5045112;28;19929;-71
2020/12/21 04:34:45;;;;;;;;;;;9.30;99.90;;;;;;5047391;28;20219;-71
2020/12/21 04:37:12;;;;;;;;;;;9.20;99.90;;;;;;5054784;28;19928;-71
2020/12/21 04:39:38;;;;;;;;;;;9.20;99.90;;;;;;5048781;28;19932;-71
2020/12/21 04:42:04;;;;;;;;;;;9.20;99.90;;;;;;5045811;28;20024;-71
2020/12/21 04:44:31;;;;;;;;;;;9.20;99.90;;;;;;5055208;28;20517;-71
2020/12/21 04:46:58;;;;;;;;;;;9.20;99.90;;;;;;5055407;28;19928;-71
2020/12/21 04:49:24;;;;;;;;;;;9.20;99.90;;;;;;5041931;28;20020;-71
2020/12/21 04:51:51;;;;;;;;;;;9.20;99.90;;;;;;5055139;28;19933;-71
2020/12/21 04:54:18;;;;;;;;;;;9.20;99.90;;;;;;5042086;28;19924;-71
2020/12/21 04:56:45;;;;;;;;;;;9.20;99.90;;;;;;5055158;28;20271;-71
2020/12/21 04:59:11;;;;;;;;;;;9.20;99.90;;;;;;5047683;28;20020;-71
2020/12/21 05:01:38;;;;;;;;;;;9.20;99.90;;;;;;5045744;28;19936;-71
2020/12/21 05:04:04;;;;;;;;;;;9.20;99.90;;;;;;5055201;28;20041;-71
2020/12/21 05:06:30;;;;;;;;;;;9.30;99.90;;;;;;5040912;28;19925;-71
2020/12/21 05:09:01;;;;;;;;;;;9.20;99.90;;;;;;5047796;28;19925;-71
2020/12/21 05:11:28;;;;;;;;;;;9.20;99.90;;;;;;5048062;28;19925;-71
2020/12/21 05:14:04;;;;;;;;;;;9.30;99.90;;;;;;5052086;28;19990;-71
2020/12/21 05:16:30;;;;;;;;;;;9.30;99.90;;;;;;5051210;28;19933;-71
2020/12/21 05:18:56;;;;;;;;;;;9.20;99.90;;;;;;5054830;28;19935;-71
2020/12/21 05:21:26;;;;;;;;;;;9.20;99.90;;;;;;5045865;28;19925;-71
2020/12/21 05:23:56;;;;;;;;;;;9.20;99.90;;;;;;5050995;28;19975;-71
2020/12/21 05:26:26;;;;;;;;;;;9.10;99.90;;;;;;5045097;28;19925;-71
2020/12/21 05:28:53;;;;;;;;;;;9.10;99.90;;;;;;5051559;28;20374;-71
2020/12/21 05:31:19;;;;;;;;;;;9.20;99.90;;;;;;5049494;28;20365;-70
2020/12/21 05:33:46;;;;;;;;;;;9.10;99.90;;;;;;5041502;28;20355;-71
2020/12/21 05:36:16;;;;;;;;;;;9.10;99.90;;;;;;5054384;28;19935;-70
2020/12/21 05:38:43;;;;;;;;;;;9.10;99.90;;;;;;5039294;28;19925;-71
2020/12/21 05:41:12;;;;;;;;;;;9.00;99.90;;;;;;5046363;28;19925;-70
2020/12/21 05:43:39;;;;;;;;;;;9.00;99.90;;;;;;5051753;28;19925;-70
2020/12/21 05:46:08;;;;;;;;;;;9.00;99.90;;;;;;5054434;28;19925;-70
2020/12/21 05:48:35;;;;;;;;;;;9.00;99.90;;;;;;5040638;28;19925;-71
2020/12/21 05:51:02;;;;;;;;;;;9.00;99.90;;;;;;5054570;28;20045;-71
2020/12/21 05:53:35;;;;;;;;;;;9.00;99.90;;;;;;5040739;28;20413;-70
2020/12/21 05:56:01;;;;;;;;;;;9.00;99.90;;;;;;5052235;28;19936;-70
2020/12/21 05:58:31;;;;;;;;;;;9.00;99.90;;;;;;5051192;28;20261;-71
2020/12/21 06:00:57;;;;;;;;;;;9.00;99.90;;;;;;5044355;28;20016;-70
2020/12/21 06:03:29;;;;;;;;;;;8.90;99.90;;;;;;5051438;28;20393;-70
2020/12/21 06:05:59;;;;;;;;;;;8.90;99.90;;;;;;5053542;28;20022;-71
2020/12/21 06:08:27;;;;;;;;;;;8.90;99.90;;;;;;5043884;28;19947;-71
2020/12/21 06:10:55;;;;;;;;;;;8.90;99.90;;;;;;5053948;28;19989;-71
2020/12/21 06:13:23;;;;;;;;;;;8.90;99.90;;;;;;5048541;28;19963;-70
2020/12/21 06:15:51;;;;;;;;;;;9.00;99.90;;;;;;5049419;28;20270;-71
2020/12/21 06:18:17;;;;;;;;;;;9.00;99.90;;;;;;5052925;28;19931;-71
2020/12/21 06:20:44;;;;;;;;;;;9.00;99.90;;;;;;5047197;28;19932;-70
2020/12/21 06:23:10;;;;;;;;;;;9.00;99.90;;;;;;5051016;28;19936;-71
2020/12/21 06:25:36;;;;;;;;;;;9.00;99.90;;;;;;5050179;28;19933;-71
2020/12/21 06:28:07;;;;;;;;;;;9.00;99.90;;;;;;5043972;28;19987;-71
2020/12/21 06:30:33;;;;;;;;;;;9.00;99.90;;;;;;5049511;28;19925;-70
2020/12/21 06:33:00;;;;;;;;;;;9.00;99.90;;;;;;5041771;28;19965;-71
2020/12/21 06:35:26;;;;;;;;;;;9.00;99.90;;;;;;5050784;28;19932;-71
2020/12/21 06:37:57;;;;;;;;;;;9.00;99.90;;;;;;5049611;28;19935;-71
2020/12/21 06:40:29;;;;;;;;;;;9.00;99.90;;;;;;5039643;28;19925;-71
2020/12/21 06:42:55;;;;;;;;;;;9.00;99.90;;;;;;5050940;28;19924;-70
2020/12/21 06:45:22;;;;;;;;;;;9.00;99.90;;;;;;5051582;28;19935;-71
2020/12/21 06:47:48;;;;;;;;;;;9.10;99.90;;;;;;5041800;28;19924;-71
2020/12/21 06:50:14;;;;;;;;;;;9.10;99.90;;;;;;5050890;28;19932;-71
2020/12/21 06:52:41;;;;;;;;;;;9.00;99.90;;;;;;5044626;28;20370;-71
2020/12/21 06:55:08;;;;;;;;;;;9.00;99.90;;;;;;5048424;28;19939;-71
2020/12/21 06:57:34;;;;;;;;;;;9.00;99.90;;;;;;5053043;28;19978;-71
2020/12/21 07:00:00;;;;;;;;;;;9.00;99.90;;;;;;5039897;28;19928;-70
2020/12/21 07:02:27;;;;;;;;;;;9.00;99.90;;;;;;5049988;28;19925;-71
2020/12/21 07:04:53;;;;;;;;;;;9.00;99.90;;;;;;5051849;28;20012;-71
2020/12/21 07:07:19;;;;;;;;;;;9.00;99.90;;;;;;5041482;28;20008;-71
2020/12/21 07:09:45;;;;;;;;;;;9.00;99.90;;;;;;5039409;28;20751;-70
2020/12/21 07:12:12;;;;;;;;;;;9.00;99.90;;;;;;5048593;28;20377;-70
2020/12/21 07:14:39;;;;;;;;;;;9.00;99.90;;;;;;5047231;28;19925;-70
2020/12/21 07:17:06;;;;;;;;;;;9.00;99.90;;;;;;5052728;28;19935;-70
2020/12/21 07:19:33;;;;;;;;;;;9.00;99.90;;;;;;5046473;28;19975;-71
2020/12/21 07:21:59;;;;;;;;;;;9.00;99.90;;;;;;5044707;28;19929;-71
2020/12/21 07:24:25;;;;;;;;;;;8.90;99.90;;;;;;5048793;28;20027;-71
2020/12/21 07:26:52;;;;;;;;;;;8.90;99.90;;;;;;5039372;28;20058;-70
2020/12/21 07:29:19;;;;;;;;;;;8.90;99.90;;;;;;5052831;28;20339;-71
2020/12/21 07:31:45;;;;;;;;;;;8.90;99.90;;;;;;5046759;28;20395;-71
2020/12/21 07:34:11;;;;;;;;;;;8.80;99.90;;;;;;5039905;28;19943;-71
2020/12/21 07:36:38;;;;;;;;;;;8.80;99.90;;;;;;5051874;28;19925;-71
2020/12/21 07:39:05;;;;;;;;;;;8.80;99.90;;;;;;5037870;28;19925;-70
2020/12/21 07:41:32;;;;;;;;;;;8.80;99.90;;;;;;5045191;28;20347;-70
2020/12/21 07:44:01;;;;;;;;;;;8.80;99.90;;;;;;5051418;28;19924;-70
2020/12/21 07:46:33;;;;;;;;;;;8.70;99.90;;;;;;5049653;28;19935;-70
2020/12/21 07:48:59;;;;;;;;;;;8.70;99.90;;;;;;5051899;28;19931;-71
2020/12/21 07:51:25;;;;;;;;;;;8.70;99.90;;;;;;5051240;28;20401;-71
2020/12/21 07:53:52;;;;;;;;;;;8.60;99.90;;;;;;5051995;28;19935;-71
2020/12/21 07:56:18;;;;;;;;;;;8.70;99.90;;;;;;5051666;28;19939;-71
2020/12/21 07:58:45;;;;;;;;;;;8.70;99.90;;;;;;5051686;28;19939;-70
2020/12/21 08:01:11;;;;;;;;;;;8.60;99.90;;;;;;5052758;28;20008;-71
2020/12/21 08:03:39;;;;;;;;;;;8.70;99.90;;;;;;5053180;28;19932;-71
2020/12/21 08:06:06;;;;;;;;;;;8.70;99.90;;;;;;5056629;28;19925;-71
2020/12/21 08:08:32;;;;;;;;;;;8.80;99.90;;;;;;5056421;28;19925;-71
2020/12/21 08:10:59;;;;;;;;;;;8.70;99.90;;;;;;5056745;28;19932;-70
2020/12/21 08:13:25;;;;;;;;;;;8.70;99.90;;;;;;5056160;28;20019;-71
2020/12/21 08:15:52;;;;;;;;;;;8.70;99.90;;;;;;5056456;28;20430;-70
2020/12/21 08:18:18;;;;;;;;;;;8.80;99.90;;;;;;5056488;28;19982;-71
2020/12/21 08:20:50;;;;;;;;;;;8.80;99.90;;;;;;5056035;28;20382;-71
2020/12/21 08:23:23;;;;;;;;;;;8.80;99.90;;;;;;5056501;28;19925;-70
2020/12/21 08:25:49;;;;;;;;;;;8.80;99.90;;;;;;5055978;28;20019;-70
2020/12/21 08:28:24;;;;;;;;;;;8.80;99.90;;;;;;5056718;28;19925;-71
2020/12/21 08:30:50;;;;;;;;;;;8.90;99.90;;;;;;5056139;28;19939;-70
2020/12/21 08:33:16;;;;;;;;;;;8.80;99.90;;;;;;5056095;28;20015;-70
2020/12/21 08:35:43;;;;;;;;;;;8.90;99.90;;;;;;5055719;28;20004;-71
2020/12/21 08:38:11;;;;;;;;;;;8.90;99.90;;;;;;5056424;28;19925;-70
2020/12/21 08:40:38;;;;;;;;;;;8.90;99.90;;;;;;5055829;28;19929;-70
2020/12/21 08:43:04;;;;;;;;;;;8.90;99.90;;;;;;5056454;28;19947;-70
2020/12/21 08:45:30;;;;;;;;;;;8.90;99.90;;;;;;5055474;28;19925;-71
2020/12/21 08:47:56;;;;;;;;;;;9.00;99.90;;;;;;5055958;28;19931;-70
2020/12/21 08:50:22;;;;;;;;;;;9.00;99.90;;;;;;5055810;28;20019;-71
2020/12/21 08:52:49;;;;;;;;;;;9.00;99.90;;;;;;5055740;28;19962;-70
2020/12/21 08:55:16;;;;;;;;;;;9.00;99.90;;;;;;5055526;28;20019;-71
2020/12/21 08:57:43;;;;;;;;;;;9.00;99.90;;;;;;5038698;28;19955;-71
2020/12/21 09:00:09;;;;;;;;;;;9.00;99.90;;;;;;5035445;28;19926;-71
2020/12/21 09:02:36;;;;;;;;;;;9.00;99.90;;;;;;5035178;28;20019;-71
2020/12/21 09:05:04;;;;;;;;;;;9.00;99.90;;;;;;5035791;28;19925;-71
2020/12/21 09:07:30;;;;;;;;;;;8.90;99.90;;;;;;5035118;28;20312;-71
2020/12/21 09:09:57;;;;;;;;;;;8.90;99.90;;;;;;5035580;28;19925;-71
2020/12/21 09:12:24;;;;;;;;;;;9.00;99.90;;;;;;5040901;28;19964;-71
2020/12/21 09:14:51;;;;;;;;;;;8.90;99.90;;;;;;5054744;28;19935;-71
2020/12/21 09:17:17;;;;;;;;;;;8.90;99.90;;;;;;5055261;28;19925;-71
2020/12/21 09:19:43;;;;;;;;;;;9.00;99.90;;;;;;5054537;28;19925;-71
2020/12/21 09:22:10;;;;;;;;;;;9.00;99.90;;;;;;5055385;28;19925;-70
2020/12/21 09:24:36;;;;;;;;;;;8.90;99.90;;;;;;5055073;28;19924;-71
2020/12/21 09:27:02;;;;;;;;;;;8.90;99.90;;;;;;5055016;28;20355;-70
2020/12/21 09:29:29;;;;;;;;;;;8.90;99.90;;;;;;5055004;28;19925;-70
2020/12/21 09:31:55;;;;;;;;;;;8.90;99.90;;;;;;5054805;28;19928;-70
2020/12/21 09:34:21;;;;;;;;;;;9.00;99.90;;;;;;5055118;28;19939;-70
2020/12/21 09:36:48;;;;;;;;;;;9.00;99.90;;;;;;5054558;28;20240;-71
2020/12/21 09:39:14;;;;;;;;;;;8.90;99.90;;;;;;5055208;28;19931;-70
2020/12/21 09:41:40;;;;;;;;;;;8.90;99.90;;;;;;5054775;28;19936;-70
2020/12/21 09:44:06;;;;;;;;;;;9.00;99.90;;;;;;5055159;28;19974;-70
2020/12/21 09:46:33;;;;;;;;;;;9.00;99.90;;;;;;5054258;28;19952;-70
2020/12/21 09:49:03;;;;;;;;;;;9.00;99.90;;;;;;5054770;28;20412;-70
2020/12/21 09:51:29;;;;;;;;;;;9.10;99.90;;;;;;5054566;28;19986;-70
2020/12/21 09:53:55;;;;;;;;;;;9.10;99.90;;;;;;5054378;28;19933;-70
2020/12/21 09:56:22;;;;;;;;;;;9.10;99.90;;;;;;5048964;28;20248;-70
2020/12/21 09:58:48;;;;;;;;;;;9.10;99.90;;;;;;5034609;28;19925;-70
2020/12/21 10:01:14;;;;;;;;;;;9.10;99.90;;;;;;5034647;28;19925;-70
2020/12/21 10:03:41;;;;;;;;;;;9.10;99.90;;;;;;5034105;28;19929;-70
2020/12/21 10:06:08;;;;;;;;;;;9.20;99.90;;;;;;5034531;28;19925;-70
2020/12/21 10:08:34;;;;;;;;;;;9.20;99.90;;;;;;5034208;28;20054;-70
2020/12/21 10:11:00;;;;;;;;;;;9.20;99.90;;;;;;5034478;28;19925;-70
2020/12/21 10:13:27;;;;;;;;;;;9.20;99.90;;;;;;5048438;28;19925;-71
2020/12/21 10:15:53;;;;;;;;;;;9.30;99.90;;;;;;5053732;28;20020;-70
2020/12/21 10:18:19;;;;;;;;;;;9.30;99.90;;;;;;5054308;28;19925;-70
2020/12/21 10:20:46;;;;;;;;;;;9.30;99.90;;;;;;5053603;28;19924;-71
2020/12/21 10:23:14;;;;;;;;;;;9.40;99.90;;;;;;5054239;28;19925;-70
2020/12/21 10:25:41;;;;;;;;;;;9.40;99.90;;;;;;5053175;28;20012;-70
2020/12/21 10:28:07;;;;;;;;;;;9.40;99.90;;;;;;5053814;28;20343;-71
2020/12/21 10:30:33;;;;;;;;;;;9.50;99.90;;;;;;5054005;28;19935;-70
2020/12/21 10:33:01;;;;;;;;;;;9.50;99.90;;;;;;5053693;28;20274;-70
2020/12/21 10:35:27;;;;;;;;;;;9.60;99.90;;;;;;5053842;28;20011;-70
2020/12/21 10:37:54;;;;;;;;;;;9.60;99.90;;;;;;5053559;28;19990;-70
2020/12/21 10:40:20;;;;;;;;;;;9.60;99.90;;;;;;5053917;28;20383;-70
2020/12/21 10:42:46;;;;;;;;;;;9.70;99.90;;;;;;5053394;28;19928;-71
2020/12/21 10:45:13;;;;;;;;;;;9.70;99.90;;;;;;5053774;28;19931;-71
2020/12/21 10:47:39;;;;;;;;;;;9.70;99.90;;;;;;5053228;28;20011;-71
2020/12/21 10:50:05;;;;;;;;;;;9.80;99.90;;;;;;5053847;28;20274;-71
2020/12/21 10:52:31;;;;;;;;;;;9.80;99.90;;;;;;5053610;28;19929;-71
2020/12/21 10:54:58;;;;;;;;;;;9.80;99.90;;;;;;5053171;28;19935;-71
2020/12/21 10:57:25;;;;;;;;;;;9.90;99.90;;;;;;5039196;28;19925;-71
2020/12/21 10:59:51;;;;;;;;;;;9.90;99.90;;;;;;5033445;28;20306;-70
2020/12/21 11:02:17;;;;;;;;;;;9.90;99.90;;;;;;5033357;28;19925;-71
2020/12/21 11:04:45;;;;;;;;;;;10.00;99.90;;;;;;5033147;28;19925;-71
2020/12/21 11:07:11;;;;;;;;;;;10.00;99.90;;;;;;5033453;28;19940;-71
2020/12/21 11:09:37;;;;;;;;;;;10.00;99.90;;;;;;5033011;28;20323;-70
2020/12/21 11:12:04;;;;;;;;;;;10.10;99.90;;;;;;5036081;28;19925;-71
2020/12/21 11:14:31;;;;;;;;;;;10.00;99.90;;;;;;5052030;28;20310;-71
2020/12/21 11:16:58;;;;;;;;;;;10.00;99.90;;;;;;5052717;28;19925;-71
2020/12/21 11:19:24;;;;;;;;;;;10.00;99.70;;;;;;5052877;28;19966;-71
2020/12/21 11:21:50;;;;;;;;;;;10.00;99.70;;;;;;5052049;28;19929;-70
2020/12/21 11:24:16;;;;;;;;;;;10.00;99.70;;;;;;5052436;28;19929;-71
2020/12/21 11:26:43;;;;;;;;;;;10.10;99.70;;;;;;5052100;28;20062;-71
2020/12/21 11:29:10;;;;;;;;;;;10.10;99.60;;;;;;5051997;28;19937;-71
2020/12/21 11:31:37;;;;;;;;;;;10.10;99.50;;;;;;5052062;28;19924;-70
2020/12/21 11:34:05;;;;;;;;;;;10.10;99.40;;;;;;5050648;28;19925;-71
2020/12/21 11:36:31;;;;;;;;;;;10.10;99.50;;;;;;5051916;28;19925;-70
2020/12/21 11:38:57;;;;;;;;;;;10.20;99.60;;;;;;5051932;28;19924;-70
2020/12/21 11:41:28;;;;;;;;;;;10.10;99.50;;;;;;5052103;28;19981;-71
2020/12/21 11:43:54;;;;;;;;;;;10.20;99.60;;;;;;5051644;28;19935;-70
2020/12/21 11:46:21;;;;;;;;;;;10.20;99.50;;;;;;5052152;28;19938;-70
2020/12/21 11:48:47;;;;;;;;;;;10.30;99.60;;;;;;5051555;28;19925;-70
2020/12/21 11:51:17;;;;;;;;;;;10.30;99.50;;;;;;5051939;28;20392;-71
2020/12/21 11:53:43;;;;;;;;;;;10.30;99.40;;;;;;5051665;28;19924;-71
2020/12/21 11:56:15;;;;;;;;;;;10.40;99.40;;;;;;5048256;28;20317;-71
2020/12/21 11:58:41;;;;;;;;;;;10.40;99.30;;;;;;5031544;28;19925;-71
2020/12/21 12:01:07;;;;;;;;;;;10.40;99.30;;;;;;5032055;28;19932;-70
2020/12/21 12:03:34;;;;;;;;;;;10.40;99.20;;;;;;5031967;28;19925;-70
2020/12/21 12:06:01;;;;;;;;;;;10.40;99.10;;;;;;5031461;28;19928;-71
2020/12/21 12:08:27;;;;;;;;;;;10.40;99.10;;;;;;5032141;28;19935;-71
2020/12/21 12:10:53;;;;;;;;;;;10.40;99.10;;;;;;5031570;28;19938;-71
2020/12/21 12:13:20;;;;;;;;;;;10.40;99.10;;;;;;5045063;28;19925;-71
2020/12/21 12:15:46;;;;;;;;;;;10.40;98.90;;;;;;5051364;28;19935;-71
2020/12/21 12:18:12;;;;;;;;;;;10.40;98.70;;;;;;5051795;28;19925;-71
2020/12/21 12:20:39;;;;;;;;;;;10.40;98.80;;;;;;5001975;28;1428352;-70
2020/12/21 12:23:05;;;;;;;;;;;10.40;98.90;;;;;;5052393;28;19925;-71
2020/12/21 12:25:31;;;;;;;;;;;10.40;98.90;;;;;;5052703;28;19925;-70
2020/12/21 12:27:58;;;;;;;;;;;10.40;98.90;;;;;;5052467;28;19932;-71
2020/12/21 12:30:24;;;;;;;;;;;10.40;98.90;;;;;;5052549;28;19925;-71
2020/12/21 12:32:50;;;;;;;;;;;10.30;98.70;;;;;;5052019;28;19928;-70
2020/12/21 12:35:16;;;;;;;;;;;10.30;98.80;;;;;;5052459;28;19935;-71
2020/12/21 12:37:43;;;;;;;;;;;10.30;98.80;;;;;;5052470;28;19927;-71
2020/12/21 12:40:09;;;;;;;;;;;10.30;98.80;;;;;;5052006;28;19925;-71
2020/12/21 12:42:36;;;;;;;;;;;10.30;98.80;;;;;;5052563;28;19925;-71
2020/12/21 12:45:02;;;;;;;;;;;10.30;98.70;;;;;;5051801;28;19932;-71
2020/12/21 12:47:29;;;;;;;;;;;10.30;98.70;;;;;;5052479;28;20372;-71
2020/12/21 12:49:55;;;;;;;;;;;10.30;98.70;;;;;;5053413;28;19925;-70
2020/12/21 12:52:21;;;;;;;;;;;10.30;98.70;;;;;;5056004;28;19924;-70
2020/12/21 12:54:49;;;;;;;;;;;10.30;98.70;;;;;;5055611;28;19939;-71
2020/12/21 12:57:15;;;;;;;;;;;10.30;98.70;;;;;;5055923;28;20263;-71
2020/12/21 12:59:41;;;;;;;;;;;10.30;98.70;;;;;;5055964;28;20216;-71
2020/12/21 13:02:09;;;;;;;;;;;10.30;98.80;;;;;;5055261;28;19947;-70
2020/12/21 13:04:35;;;;;;;;;;;10.30;98.80;;;;;;5055723;28;19924;-71
2020/12/21 13:07:02;;;;;;;;;;;10.30;98.90;;;;;;5055252;28;20346;-71
2020/12/21 13:09:28;;;;;;;;;;;10.30;98.80;;;;;;5055760;28;19925;-70
2020/12/21 13:11:55;;;;;;;;;;;10.40;98.90;;;;;;5054881;28;20248;-71
2020/12/21 13:14:21;;;;;;;;;;;10.30;98.90;;;;;;5055585;28;20426;-71
2020/12/21 13:16:47;;;;;;;;;;;10.30;98.90;;;;;;5055036;28;20011;-71
2020/12/21 13:19:14;;;;;;;;;;;10.30;98.90;;;;;;5055227;28;20308;-71
2020/12/21 13:21:40;;;;;;;;;;;10.30;98.80;;;;;;5055534;28;20038;-70
2020/12/21 13:24:06;;;;;;;;;;;10.30;98.80;;;;;;5054874;28;19929;-70
2020/12/21 13:26:32;;;;;;;;;;;10.30;98.90;;;;;;5055293;28;19931;-70
2020/12/21 13:28:59;;;;;;;;;;;10.30;98.90;;;;;;5054890;28;19935;-70
2020/12/21 13:31:27;;;;;;;;;;;10.30;98.90;;;;;;5055035;28;19985;-70
2020/12/21 13:33:53;;;;;;;;;;;10.30;98.90;;;;;;5054239;28;19925;-71
2020/12/21 13:36:19;;;;;;;;;;;10.20;98.80;;;;;;5035307;28;19925;-70
2020/12/21 13:38:45;;;;;;;;;;;10.20;98.80;;;;;;5035173;28;19979;-70
2020/12/21 13:41:12;;;;;;;;;;;10.20;98.90;;;;;;5034702;28;19925;-70
2020/12/21 13:43:39;;;;;;;;;;;10.20;98.80;;;;;;5035115;28;19925;-70
2020/12/21 13:46:07;;;;;;;;;;;10.20;98.80;;;;;;5034491;28;20303;-71
2020/12/21 13:48:33;;;;;;;;;;;10.20;98.80;;;;;;5035220;28;19929;-70
2020/12/21 13:50:59;;;;;;;;;;;10.20;98.80;;;;;;5034452;28;20370;-70
2020/12/21 13:53:25;;;;;;;;;;;10.30;98.90;;;;;;5034830;28;19925;-70
2020/12/21 13:55:51;;;;;;;;;;;10.30;98.90;;;;;;5034695;28;19935;-70
2020/12/21 13:58:18;;;;;;;;;;;10.30;98.80;;;;;;5034860;28;20131;-71
2020/12/21 14:00:44;;;;;;;;;;;10.20;98.80;;;;;;5033820;28;20344;-70
2020/12/21 14:03:11;;;;;;;;;;;10.20;98.80;;;;;;5033926;28;20013;-71
2020/12/21 14:05:37;;;;;;;;;;;10.20;98.80;;;;;;5034531;28;20012;-71
2020/12/21 14:08:03;;;;;;;;;;;10.20;98.60;;;;;;5034247;28;20012;-70
2020/12/21 14:10:31;;;;;;;;;;;10.20;98.60;;;;;;5034253;28;19925;-71
2020/12/21 14:12:57;;;;;;;;;;;10.20;98.60;;;;;;5043681;28;20007;-71
2020/12/21 14:15:23;;;;;;;;;;;10.10;98.70;;;;;;5054294;28;19935;-71
2020/12/21 14:17:51;;;;;;;;;;;10.10;98.70;;;;;;5054234;28;19939;-71
2020/12/21 14:20:18;;;;;;;;;;;10.10;98.70;;;;;;5053718;28;20425;-70
2020/12/21 14:22:44;;;;;;;;;;;10.10;98.70;;;;;;5054360;28;20023;-70